createdAt,value
2022-10-17T00:01:57.003Z,16.00
2022-10-17T00:04:45.047Z,16.00
2022-10-17T00:07:34.300Z,16.00
2022-10-17T00:10:22.655Z,16.00
2022-10-17T00:13:11.530Z,16.10
2022-10-17T00:15:59.397Z,16.10
2022-10-17T00:18:47.202Z,16.10
2022-10-17T00:21:35.312Z,16.10
2022-10-17T00:24:24.521Z,16.10
2022-10-17T00:27:12.407Z,16.10
2022-10-17T00:30:00.404Z,16.10
2022-10-17T00:32:48.291Z,16.10
2022-10-17T00:35:36.135Z,16.10
2022-10-17T00:38:23.997Z,16.10
2022-10-17T00:41:15.341Z,16.10
2022-10-17T00:44:04.092Z,16.10
2022-10-17T00:46:52.061Z,16.10
2022-10-17T00:49:39.983Z,16.10
2022-10-17T00:52:29.761Z,16.10
2022-10-17T00:55:19.353Z,16.10
2022-10-17T00:58:08.574Z,16.10
2022-10-17T01:00:56.401Z,16.10
2022-10-17T01:03:44.508Z,16.10
2022-10-17T01:06:32.420Z,16.00
2022-10-17T01:09:20.331Z,16.00
2022-10-17T01:12:12.154Z,16.00
2022-10-17T01:15:07.740Z,16.10
2022-10-17T01:18:00.349Z,16.10
2022-10-17T01:21:04.126Z,16.10
2022-10-17T01:24:12.932Z,16.10
2022-10-17T01:27:16.357Z,16.10
2022-10-17T01:30:19.139Z,16.10
2022-10-17T01:33:11.689Z,16.10
2022-10-17T01:36:04.790Z,16.10
2022-10-17T01:38:58.634Z,16.10
2022-10-17T01:41:51.218Z,16.10
2022-10-17T01:44:42.722Z,16.10
2022-10-17T01:47:32.180Z,16.10
2022-10-17T01:50:24.395Z,16.10
2022-10-17T01:53:14.333Z,16.10
2022-10-17T01:56:03.654Z,16.10
2022-10-17T01:58:53.356Z,16.10
2022-10-17T02:01:43.017Z,16.10
2022-10-17T02:04:30.957Z,16.10
2022-10-17T02:07:20.229Z,16.10
2022-10-17T02:10:13.368Z,16.10
2022-10-17T02:13:03.501Z,16.10
2022-10-17T02:16:00.405Z,16.10
2022-10-17T02:18:53.094Z,16.10
2022-10-17T02:21:45.650Z,16.10
2022-10-17T02:24:39.030Z,16.00
2022-10-17T02:27:33.327Z,16.10
2022-10-17T02:30:24.412Z,16.10
2022-10-17T02:33:13.975Z,16.10
2022-10-17T02:36:04.188Z,16.00
2022-10-17T02:38:52.774Z,16.00
2022-10-17T02:41:42.133Z,16.00
2022-10-17T02:44:30.698Z,16.00
2022-10-17T02:47:21.215Z,16.00
2022-10-17T02:50:09.444Z,16.00
2022-10-17T02:52:59.456Z,15.90
2022-10-17T02:55:51.503Z,15.90
2022-10-17T02:58:41.505Z,15.90
2022-10-17T03:01:30.361Z,15.90
2022-10-17T03:04:18.857Z,15.90
2022-10-17T03:07:06.728Z,15.90
2022-10-17T03:09:54.600Z,15.90
2022-10-17T03:12:42.520Z,15.80
2022-10-17T03:15:31.733Z,15.80
2022-10-17T03:18:19.643Z,15.90
2022-10-17T03:21:07.629Z,15.90
2022-10-17T03:23:55.517Z,15.90
2022-10-17T03:26:43.472Z,15.90
2022-10-17T03:29:31.445Z,15.90
2022-10-17T03:32:20.682Z,15.90
2022-10-17T03:35:12.597Z,15.90
2022-10-17T03:38:03.097Z,15.90
2022-10-17T03:40:56.018Z,15.80
2022-10-17T03:43:43.920Z,15.80
2022-10-17T03:46:31.953Z,15.80
2022-10-17T03:49:21.163Z,15.80
2022-10-17T03:52:12.133Z,15.80
2022-10-17T03:54:59.942Z,15.80
2022-10-17T03:57:47.832Z,15.80
2022-10-17T04:00:36.578Z,15.80
2022-10-17T04:03:24.500Z,15.80
2022-10-17T04:06:13.829Z,15.80
2022-10-17T04:09:01.722Z,15.80
2022-10-17T04:11:49.614Z,15.70
2022-10-17T04:14:37.729Z,15.70
2022-10-17T04:17:25.686Z,15.70
2022-10-17T04:20:13.821Z,15.70
2022-10-17T04:23:03.130Z,15.70
2022-10-17T04:25:50.984Z,15.70
2022-10-17T04:31:31.669Z,15.70
2022-10-17T04:34:19.560Z,15.60
2022-10-17T04:37:07.449Z,15.70
2022-10-17T04:39:56.707Z,15.60
2022-10-17T04:42:44.594Z,15.60
2022-10-17T04:45:32.445Z,15.60
2022-10-17T04:48:20.452Z,15.60
2022-10-17T04:51:09.516Z,15.60
2022-10-17T04:53:57.505Z,15.60
2022-10-17T04:56:47.244Z,15.60
2022-10-17T04:59:35.114Z,15.60
2022-10-17T05:02:23.334Z,15.50
2022-10-17T05:05:11.194Z,15.50
2022-10-17T05:07:59.180Z,15.60
2022-10-17T05:10:49.431Z,15.50
2022-10-17T05:13:38.721Z,15.50
2022-10-17T05:16:27.156Z,15.40
2022-10-17T05:19:15.219Z,15.50
2022-10-17T05:22:03.113Z,15.50
2022-10-17T05:24:50.991Z,15.40
2022-10-17T05:27:39.062Z,15.40
2022-10-17T05:30:28.491Z,15.50
2022-10-17T05:33:16.480Z,15.50
2022-10-17T05:36:04.409Z,15.50
2022-10-17T05:38:52.679Z,15.50
2022-10-17T05:41:40.509Z,15.40
2022-10-17T05:44:28.406Z,15.40
2022-10-17T05:47:17.635Z,15.40
2022-10-17T05:50:05.833Z,15.40
2022-10-17T05:52:54.753Z,15.40
2022-10-17T05:55:42.657Z,15.40
2022-10-17T05:58:50.251Z,15.40
2022-10-17T06:01:38.528Z,15.40
2022-10-17T06:04:28.767Z,15.40
2022-10-17T06:07:16.871Z,15.40
2022-10-17T06:10:05.270Z,15.40
2022-10-17T06:12:53.223Z,15.40
2022-10-17T06:15:41.134Z,15.40
2022-10-17T06:18:29.188Z,15.40
2022-10-17T06:21:20.270Z,15.40
2022-10-17T06:24:08.151Z,15.40
2022-10-17T06:26:55.987Z,15.40
2022-10-17T06:29:44.095Z,15.40
2022-10-17T06:32:34.271Z,15.40
2022-10-17T06:35:22.248Z,15.50
2022-10-17T06:38:11.488Z,15.50
2022-10-17T06:41:04.836Z,15.50
2022-10-17T06:43:52.696Z,15.50
2022-10-17T06:46:40.908Z,15.60
2022-10-17T06:49:29.283Z,15.60
2022-10-17T06:52:17.739Z,15.60
2022-10-17T06:55:07.663Z,15.70
2022-10-17T06:57:56.164Z,15.80
2022-10-17T07:00:44.105Z,15.80
2022-10-17T07:03:32.462Z,15.90
2022-10-17T07:06:20.296Z,15.90
2022-10-17T07:09:08.163Z,16.00
2022-10-17T07:11:57.401Z,16.00
2022-10-17T07:14:47.253Z,16.00
2022-10-17T07:17:43.969Z,16.10
2022-10-17T07:20:31.842Z,16.10
2022-10-17T07:23:19.729Z,16.10
2022-10-17T07:26:08.464Z,16.10
2022-10-17T07:28:57.709Z,16.10
2022-10-17T07:31:48.765Z,16.10
2022-10-17T07:34:37.159Z,16.20
2022-10-17T07:37:25.018Z,16.20
2022-10-17T07:40:13.023Z,16.20
2022-10-17T07:43:01.567Z,16.20
2022-10-17T07:45:50.795Z,16.20
2022-10-17T07:48:38.903Z,16.20
2022-10-17T07:51:27.864Z,16.20
2022-10-17T07:54:15.752Z,16.20
2022-10-17T07:57:03.635Z,16.30
2022-10-17T07:59:51.914Z,16.30
2022-10-17T08:02:41.164Z,16.30
2022-10-17T08:05:30.051Z,16.30
2022-10-17T08:08:17.910Z,16.40
2022-10-17T08:11:07.274Z,16.40
2022-10-17T08:13:55.330Z,16.40
2022-10-17T08:16:43.572Z,16.50
2022-10-17T08:19:32.986Z,16.50
2022-10-17T08:22:20.901Z,16.60
2022-10-17T08:25:09.367Z,16.60
2022-10-17T08:27:57.298Z,16.60
2022-10-17T08:30:45.171Z,16.70
2022-10-17T08:33:33.512Z,16.80
2022-10-17T08:36:22.770Z,16.80
2022-10-17T08:39:10.759Z,16.90
2022-10-17T08:42:04.189Z,17.00
2022-10-17T08:44:56.137Z,17.10
2022-10-17T08:47:45.928Z,17.20
2022-10-17T08:50:35.978Z,17.30
2022-10-17T08:53:27.140Z,17.40
2022-10-17T08:56:19.749Z,17.50
2022-10-17T08:59:13.745Z,17.60
2022-10-17T09:02:04.239Z,17.60
2022-10-17T09:04:59.026Z,17.70
2022-10-17T09:07:49.914Z,17.70
2022-10-17T09:10:44.697Z,17.70
2022-10-17T09:13:44.875Z,17.70
2022-10-17T09:16:43.592Z,17.80
2022-10-17T09:19:33.228Z,17.80
2022-10-17T09:22:22.561Z,17.80
2022-10-17T09:25:13.199Z,17.90
2022-10-17T09:28:05.691Z,17.90
2022-10-17T09:30:56.888Z,18.00
2022-10-17T09:33:54.658Z,18.00
2022-10-17T09:36:44.066Z,18.10
2022-10-17T09:39:33.097Z,18.10
2022-10-17T09:42:22.020Z,18.20
2022-10-17T09:45:19.382Z,18.30
2022-10-17T09:48:11.672Z,18.30
2022-10-17T09:51:14.971Z,18.40
2022-10-17T09:54:14.118Z,18.60
2022-10-17T09:57:02.872Z,18.70
2022-10-17T09:59:57.730Z,18.80
2022-10-17T10:02:47.922Z,18.80
2022-10-17T10:05:36.140Z,18.90
2022-10-17T10:08:25.078Z,18.90
2022-10-17T10:11:14.047Z,19.00
2022-10-17T10:14:12.095Z,19.10
2022-10-17T10:17:00.523Z,19.20
2022-10-17T10:19:52.203Z,19.20
2022-10-17T10:22:40.369Z,19.30
2022-10-17T10:25:28.249Z,19.30
2022-10-17T10:28:18.059Z,19.40
2022-10-17T10:31:07.935Z,19.50
2022-10-17T10:33:57.607Z,19.60
2022-10-17T10:36:50.016Z,19.70
2022-10-17T10:39:49.675Z,19.80
2022-10-17T10:42:38.797Z,19.80
2022-10-17T10:45:47.868Z,19.90
2022-10-17T10:48:36.879Z,20.10
2022-10-17T10:51:26.451Z,20.10
2022-10-17T10:54:18.929Z,20.10
2022-10-17T10:57:08.543Z,20.20
2022-10-17T10:59:59.966Z,20.20
2022-10-17T11:02:52.936Z,20.30
2022-10-17T11:05:43.432Z,20.30
2022-10-17T11:08:35.168Z,20.20
2022-10-17T11:11:27.471Z,20.30
2022-10-17T11:14:17.040Z,20.30
2022-10-17T11:17:09.269Z,20.40
2022-10-17T11:20:00.473Z,20.50
2022-10-17T11:22:49.022Z,20.50
2022-10-17T11:25:38.047Z,20.50
2022-10-17T11:28:27.487Z,20.60
2022-10-17T11:31:16.896Z,20.70
2022-10-17T11:34:07.035Z,20.80
2022-10-17T11:36:57.488Z,20.90
2022-10-17T11:39:49.323Z,21.00
2022-10-17T11:42:40.541Z,21.10
2022-10-17T11:45:32.285Z,21.20
2022-10-17T11:48:22.307Z,21.30
2022-10-17T11:54:19.891Z,21.40
2022-10-17T11:57:16.551Z,21.50
2022-10-17T12:00:12.835Z,21.50
2022-10-17T12:03:14.671Z,21.60
2022-10-17T12:06:05.875Z,21.60
2022-10-17T12:08:56.435Z,21.70
2022-10-17T12:11:54.013Z,21.80
2022-10-17T12:14:43.215Z,21.80
2022-10-17T12:17:33.003Z,22.00
2022-10-17T12:20:33.264Z,22.10
2022-10-17T12:23:26.786Z,22.20
2022-10-17T12:26:26.558Z,22.20
2022-10-17T12:29:26.497Z,22.20
2022-10-17T12:32:16.007Z,22.10
2022-10-17T12:35:03.990Z,22.20
2022-10-17T12:38:03.969Z,22.20
2022-10-17T12:40:55.907Z,22.20
2022-10-17T12:43:52.756Z,22.10
2022-10-17T12:46:49.780Z,22.10
2022-10-17T12:49:46.597Z,22.20
2022-10-17T12:52:56.091Z,22.20
2022-10-17T12:55:45.371Z,22.40
2022-10-17T12:58:34.117Z,22.40
2022-10-17T13:01:26.506Z,22.50
2022-10-17T13:04:15.015Z,22.60
2022-10-17T13:07:03.215Z,22.70
2022-10-17T13:09:51.591Z,22.70
2022-10-17T13:12:41.427Z,22.90
2022-10-17T13:15:29.666Z,22.90
2022-10-17T13:18:19.570Z,23.00
2022-10-17T13:21:08.719Z,23.00
2022-10-17T13:23:56.740Z,23.10
2022-10-17T13:26:46.413Z,23.10
2022-10-17T13:29:35.688Z,23.10
2022-10-17T13:32:23.995Z,23.20
2022-10-17T13:35:13.165Z,23.20
2022-10-17T13:38:03.178Z,23.20
2022-10-17T13:40:51.122Z,23.10
2022-10-17T13:43:39.050Z,23.10
2022-10-17T13:46:39.315Z,23.10
2022-10-17T13:49:31.005Z,23.10
2022-10-17T13:52:20.099Z,23.10
2022-10-17T13:55:10.630Z,23.10
2022-10-17T13:58:10.045Z,23.10
2022-10-17T14:00:58.168Z,23.10
2022-10-17T14:03:49.786Z,23.10
2022-10-17T14:06:45.034Z,23.00
2022-10-17T14:09:35.907Z,23.00
2022-10-17T14:12:24.020Z,23.00
2022-10-17T14:15:14.579Z,23.00
2022-10-17T14:18:07.503Z,23.00
2022-10-17T14:24:16.834Z,23.10
2022-10-17T14:27:04.864Z,23.10
2022-10-17T14:29:53.922Z,23.10
2022-10-17T14:32:44.131Z,23.10
2022-10-17T14:35:41.679Z,23.10
2022-10-17T14:38:31.732Z,23.20
2022-10-17T14:41:41.904Z,23.20
2022-10-17T14:44:31.796Z,23.20
2022-10-17T14:47:42.238Z,23.20
2022-10-17T14:50:29.563Z,23.20
2022-10-17T14:53:21.951Z,23.10
2022-10-17T14:56:23.800Z,23.10
2022-10-17T14:59:13.876Z,23.10
2022-10-17T15:02:09.892Z,23.00
2022-10-17T15:04:57.910Z,22.90
2022-10-17T15:07:45.776Z,22.80
2022-10-17T15:10:34.845Z,22.80
2022-10-17T15:13:28.464Z,22.70
2022-10-17T15:16:19.717Z,22.70
2022-10-17T15:19:07.603Z,22.70
2022-10-17T15:21:55.502Z,22.60
2022-10-17T15:24:43.569Z,22.50
2022-10-17T15:27:32.628Z,22.40
2022-10-17T15:30:23.412Z,22.30
2022-10-17T15:33:11.259Z,22.20
2022-10-17T15:35:59.213Z,22.20
2022-10-17T15:38:47.120Z,22.20
2022-10-17T15:41:35.024Z,22.20
2022-10-17T15:44:22.886Z,22.20
2022-10-17T15:47:19.650Z,22.20
2022-10-17T15:50:08.907Z,22.10
2022-10-17T15:52:56.768Z,22.10
2022-10-17T15:55:44.704Z,22.20
2022-10-17T15:58:36.188Z,22.00
2022-10-17T16:01:25.141Z,21.90
2022-10-17T16:04:15.621Z,21.80
2022-10-17T16:07:03.555Z,21.80
2022-10-17T16:09:51.549Z,21.70
2022-10-17T16:12:41.442Z,21.70
2022-10-17T16:15:29.308Z,21.60
2022-10-17T16:18:17.254Z,21.60
2022-10-17T16:21:06.784Z,21.60
2022-10-17T16:23:55.087Z,21.50
2022-10-17T16:26:42.979Z,21.50
2022-10-17T16:29:31.312Z,21.40
2022-10-17T16:32:19.168Z,21.40
2022-10-17T16:35:07.673Z,21.40
2022-10-17T16:37:57.870Z,21.30
2022-10-17T16:40:46.143Z,21.30
2022-10-17T16:43:36.444Z,21.20
2022-10-17T16:46:25.199Z,21.20
2022-10-17T16:49:15.983Z,21.20
2022-10-17T16:52:03.909Z,21.10
2022-10-17T16:54:53.250Z,21.00
2022-10-17T16:57:41.122Z,21.00
2022-10-17T17:00:29.110Z,21.00
2022-10-17T17:03:17.251Z,21.00
2022-10-17T17:06:05.431Z,20.90
2022-10-17T17:08:53.748Z,20.90
2022-10-17T17:11:43.176Z,20.90
2022-10-17T17:14:31.038Z,20.90
2022-10-17T17:17:30.366Z,20.80
2022-10-17T17:20:27.065Z,20.80
2022-10-17T17:23:16.035Z,20.80
2022-10-17T17:26:08.930Z,20.70
2022-10-17T17:28:59.200Z,20.70
2022-10-17T17:31:47.416Z,20.70
2022-10-17T17:34:36.725Z,20.70
2022-10-17T17:37:24.558Z,20.60
2022-10-17T17:40:12.710Z,20.60
2022-10-17T17:45:54.879Z,20.50
2022-10-17T17:48:43.071Z,20.50
2022-10-17T17:51:30.951Z,20.40
2022-10-17T17:54:18.850Z,20.40
2022-10-17T17:57:06.859Z,20.40
2022-10-17T17:59:54.789Z,20.30
2022-10-17T18:02:44.551Z,20.30
2022-10-17T18:05:32.551Z,20.20
2022-10-17T18:08:20.463Z,20.20
2022-10-17T18:11:08.334Z,20.20
2022-10-17T18:13:56.695Z,20.10
2022-10-17T18:16:44.605Z,20.20
2022-10-17T18:19:34.000Z,20.10
2022-10-17T18:22:22.960Z,20.10
2022-10-17T18:25:11.135Z,20.10
2022-10-17T18:27:58.968Z,20.10
2022-10-17T18:30:46.894Z,20.10
2022-10-17T18:33:35.412Z,20.10
2022-10-17T18:36:27.298Z,20.10
2022-10-17T18:39:15.164Z,20.10
2022-10-17T18:42:03.119Z,20.10
2022-10-17T18:44:51.324Z,20.10
2022-10-17T18:47:39.164Z,20.00
2022-10-17T18:50:27.036Z,20.00
2022-10-17T18:53:17.618Z,20.00
2022-10-17T18:56:05.967Z,19.90
2022-10-17T18:58:53.927Z,19.90
2022-10-17T19:01:43.533Z,19.80
2022-10-17T19:04:31.485Z,19.90
2022-10-17T19:07:20.380Z,19.80
2022-10-17T19:10:10.222Z,19.70
2022-10-17T19:12:58.231Z,19.80
2022-10-17T19:15:48.172Z,19.70
2022-10-17T19:18:36.650Z,19.70
2022-10-17T19:21:24.668Z,19.60
2022-10-17T19:24:13.827Z,19.60
2022-10-17T19:27:05.139Z,19.60
2022-10-17T19:29:53.281Z,19.60
2022-10-17T19:32:41.125Z,19.50
2022-10-17T19:35:29.336Z,19.50
2022-10-17T19:38:17.178Z,19.50
2022-10-17T19:41:06.409Z,19.40
2022-10-17T19:43:55.648Z,19.40
2022-10-17T19:46:44.362Z,19.40
2022-10-17T19:49:32.680Z,19.40
2022-10-17T19:52:20.533Z,19.30
2022-10-17T19:55:08.961Z,19.40
2022-10-17T19:57:59.147Z,19.40
2022-10-17T20:00:50.212Z,19.40
2022-10-17T20:03:38.814Z,19.30
2022-10-17T20:06:27.812Z,19.30
2022-10-17T20:09:17.488Z,19.20
2022-10-17T20:12:08.807Z,19.20
2022-10-17T20:14:56.745Z,19.20
2022-10-17T20:17:49.912Z,19.20
2022-10-17T20:20:52.409Z,19.20
2022-10-17T20:23:53.785Z,19.10
2022-10-17T20:26:50.064Z,19.10
2022-10-17T20:29:38.643Z,19.10
2022-10-17T20:32:28.756Z,19.00
2022-10-17T20:35:20.970Z,19.00
2022-10-17T20:38:09.827Z,18.90
2022-10-17T20:41:00.781Z,18.80
2022-10-17T20:43:51.323Z,18.70
2022-10-17T20:46:44.644Z,18.70
2022-10-17T20:49:41.294Z,18.60
2022-10-17T20:52:31.357Z,18.60
2022-10-17T20:55:23.041Z,18.60
2022-10-17T20:58:11.957Z,18.60
2022-10-17T21:01:00.033Z,18.60
2022-10-17T21:03:51.613Z,18.60
2022-10-17T21:06:41.469Z,18.70
2022-10-17T21:09:36.878Z,18.70
2022-10-17T21:12:31.380Z,18.70
2022-10-17T21:15:26.260Z,18.70
2022-10-17T21:18:15.570Z,18.60
2022-10-17T21:21:12.373Z,18.60
2022-10-17T21:24:01.937Z,18.70
2022-10-17T21:26:55.510Z,18.70
2022-10-17T21:29:44.072Z,18.60
2022-10-17T21:32:47.491Z,18.60
2022-10-17T21:35:38.854Z,18.60
2022-10-17T21:38:26.696Z,18.60
2022-10-17T21:41:15.879Z,18.60
2022-10-17T21:44:06.226Z,18.60
2022-10-17T21:46:55.937Z,18.60
2022-10-17T21:49:45.006Z,18.60
2022-10-17T21:52:33.512Z,18.60
2022-10-17T21:55:29.121Z,18.50
2022-10-17T21:58:17.368Z,18.50
2022-10-17T22:01:07.774Z,18.40
2022-10-17T22:03:56.613Z,18.30
2022-10-17T22:06:46.527Z,18.20
2022-10-17T22:09:34.409Z,18.20
2022-10-17T22:12:22.282Z,18.20
2022-10-17T22:15:10.451Z,18.10
2022-10-17T22:18:01.151Z,18.10
2022-10-17T22:20:49.043Z,18.10
2022-10-17T22:23:38.195Z,18.10
2022-10-17T22:26:26.136Z,18.00
2022-10-17T22:29:14.541Z,18.00
2022-10-17T22:32:03.466Z,18.00
2022-10-17T22:34:52.700Z,17.90
2022-10-17T22:37:40.790Z,17.90
2022-10-17T22:40:28.740Z,17.90
2022-10-17T22:43:16.603Z,17.90
2022-10-17T22:46:05.798Z,17.80
2022-10-17T22:48:53.683Z,17.80
2022-10-17T22:51:42.858Z,17.70
2022-10-17T22:54:30.759Z,17.70
2022-10-17T22:57:18.583Z,17.70
2022-10-17T23:00:07.013Z,17.70
2022-10-17T23:02:54.995Z,17.80
2022-10-17T23:05:42.923Z,17.80
2022-10-17T23:08:32.180Z,17.80
2022-10-17T23:11:21.032Z,17.80
2022-10-17T23:14:08.985Z,17.80
2022-10-17T23:16:56.894Z,17.70
2022-10-17T23:19:44.825Z,17.70
2022-10-17T23:22:32.832Z,17.70
2022-10-17T23:25:22.329Z,17.70
2022-10-17T23:28:10.465Z,17.60
2022-10-17T23:30:58.323Z,17.60
2022-10-17T23:33:46.730Z,17.60
2022-10-17T23:36:34.620Z,17.60
2022-10-17T23:39:22.519Z,17.60
2022-10-17T23:42:11.713Z,17.60
2022-10-17T23:44:59.597Z,17.60
2022-10-17T23:47:47.454Z,17.70
2022-10-17T23:50:35.333Z,17.60
2022-10-17T23:53:23.183Z,17.50
2022-10-17T23:56:11.404Z,17.50
2022-10-17T23:59:00.825Z,17.50
